sensor_id;sensor_type;location;lat;lon;timestamp;temperature;humidity
20139;DHT22;10230;51.502;10.800;2022-10-22T00:02:12;12.60;99.90
20139;DHT22;10230;51.502;10.800;2022-10-22T00:04:41;12.60;99.90
20139;DHT22;10230;51.502;10.800;2022-10-22T00:07:06;12.60;99.90
20139;DHT22;10230;51.502;10.800;2022-10-22T00:09:32;12.60;99.90
20139;DHT22;10230;51.502;10.800;2022-10-22T00:11:58;12.80;99.90
20139;DHT22;10230;51.502;10.800;2022-10-22T00:14:23;12.70;99.90
20139;DHT22;10230;51.502;10.800;2022-10-22T00:16:49;12.70;99.90
20139;DHT22;10230;51.502;10.800;2022-10-22T00:21:40;12.80;99.90
20139;DHT22;10230;51.502;10.800;2022-10-22T00:24:06;12.80;99.90
20139;DHT22;10230;51.502;10.800;2022-10-22T00:26:32;12.80;99.90
20139;DHT22;10230;51.502;10.800;2022-10-22T00:31:24;12.80;99.90
20139;DHT22;10230;51.502;10.800;2022-10-22T00:33:49;12.90;99.90
20139;DHT22;10230;51.502;10.800;2022-10-22T00:36:15;12.90;99.90
20139;DHT22;10230;51.502;10.800;2022-10-22T00:41:07;12.90;99.90
20139;DHT22;10230;51.502;10.800;2022-10-22T00:43:51;12.90;99.90
20139;DHT22;10230;51.502;10.800;2022-10-22T00:46:17;12.90;99.90
20139;DHT22;10230;51.502;10.800;2022-10-22T00:48:43;13.00;99.90
20139;DHT22;10230;51.502;10.800;2022-10-22T00:51:08;13.00;99.90
20139;DHT22;10230;51.502;10.800;2022-10-22T00:53:39;13.00;99.90
20139;DHT22;10230;51.502;10.800;2022-10-22T00:56:06;13.00;99.90
20139;DHT22;10230;51.502;10.800;2022-10-22T00:58:37;12.90;99.90
20139;DHT22;10230;51.502;10.800;2022-10-22T01:01:05;12.90;99.90
20139;DHT22;10230;51.502;10.800;2022-10-22T01:03:33;12.80;99.90
20139;DHT22;10230;51.502;10.800;2022-10-22T01:06:01;12.80;99.90
20139;DHT22;10230;51.502;10.800;2022-10-22T01:11:18;12.70;99.90
20139;DHT22;10230;51.502;10.800;2022-10-22T01:14:03;12.70;99.90
20139;DHT22;10230;51.502;10.800;2022-10-22T01:16:32;12.60;99.90
20139;DHT22;10230;51.502;10.800;2022-10-22T01:21:44;12.50;99.90
20139;DHT22;10230;51.502;10.800;2022-10-22T01:27:23;12.40;99.90
20139;DHT22;10230;51.502;10.800;2022-10-22T01:29:57;12.40;99.90
20139;DHT22;10230;51.502;10.800;2022-10-22T01:32:26;12.30;99.90
20139;DHT22;10230;51.502;10.800;2022-10-22T01:35:01;12.30;99.90
20139;DHT22;10230;51.502;10.800;2022-10-22T01:37:30;12.30;99.90
20139;DHT22;10230;51.502;10.800;2022-10-22T01:39:58;12.30;99.90
20139;DHT22;10230;51.502;10.800;2022-10-22T01:42:24;12.30;99.90
20139;DHT22;10230;51.502;10.800;2022-10-22T01:44:50;12.30;99.90
20139;DHT22;10230;51.502;10.800;2022-10-22T01:52:50;12.30;99.90
20139;DHT22;10230;51.502;10.800;2022-10-22T01:58:19;12.30;99.90
20139;DHT22;10230;51.502;10.800;2022-10-22T02:00:59;12.30;99.90
20139;DHT22;10230;51.502;10.800;2022-10-22T02:03:37;12.30;99.90
20139;DHT22;10230;51.502;10.800;2022-10-22T02:06:06;12.30;99.90
20139;DHT22;10230;51.502;10.800;2022-10-22T02:08:34;12.30;99.90
20139;DHT22;10230;51.502;10.800;2022-10-22T02:11:02;12.30;99.90
20139;DHT22;10230;51.502;10.800;2022-10-22T02:13:38;12.30;99.90
20139;DHT22;10230;51.502;10.800;2022-10-22T02:16:07;12.30;99.90
20139;DHT22;10230;51.502;10.800;2022-10-22T02:18:35;12.30;99.90
20139;DHT22;10230;51.502;10.800;2022-10-22T02:21:03;12.30;99.90
20139;DHT22;10230;51.502;10.800;2022-10-22T02:23:30;12.30;99.90
20139;DHT22;10230;51.502;10.800;2022-10-22T02:26:13;12.40;99.90
20139;DHT22;10230;51.502;10.800;2022-10-22T02:31:20;12.40;99.90
20139;DHT22;10230;51.502;10.800;2022-10-22T02:33:50;12.40;99.90
20139;DHT22;10230;51.502;10.800;2022-10-22T02:36:18;12.40;99.90
20139;DHT22;10230;51.502;10.800;2022-10-22T02:38:45;12.30;99.90
20139;DHT22;10230;51.502;10.800;2022-10-22T02:41:12;12.40;99.90
20139;DHT22;10230;51.502;10.800;2022-10-22T02:43:40;12.40;99.90
20139;DHT22;10230;51.502;10.800;2022-10-22T02:46:08;12.40;99.90
20139;DHT22;10230;51.502;10.800;2022-10-22T02:48:34;12.40;99.90
20139;DHT22;10230;51.502;10.800;2022-10-22T02:51:00;12.40;99.90
20139;DHT22;10230;51.502;10.800;2022-10-22T02:53:25;12.40;99.90
20139;DHT22;10230;51.502;10.800;2022-10-22T02:55:51;12.40;99.90
20139;DHT22;10230;51.502;10.800;2022-10-22T02:58:17;12.40;99.90
20139;DHT22;10230;51.502;10.800;2022-10-22T03:00:43;12.40;99.90
20139;DHT22;10230;51.502;10.800;2022-10-22T03:03:09;12.40;99.90
20139;DHT22;10230;51.502;10.800;2022-10-22T03:05:34;12.40;99.90
20139;DHT22;10230;51.502;10.800;2022-10-22T03:08:00;12.40;99.90
20139;DHT22;10230;51.502;10.800;2022-10-22T03:10:25;12.40;99.90
20139;DHT22;10230;51.502;10.800;2022-10-22T03:12:51;12.40;99.90
20139;DHT22;10230;51.502;10.800;2022-10-22T03:15:17;12.40;99.90
20139;DHT22;10230;51.502;10.800;2022-10-22T03:17:42;12.40;99.90
20139;DHT22;10230;51.502;10.800;2022-10-22T03:20:08;12.40;99.90
20139;DHT22;10230;51.502;10.800;2022-10-22T03:22:35;12.40;99.90
20139;DHT22;10230;51.502;10.800;2022-10-22T03:25:06;12.40;99.90
20139;DHT22;10230;51.502;10.800;2022-10-22T03:27:35;12.40;99.90
20139;DHT22;10230;51.502;10.800;2022-10-22T03:30:01;12.40;99.90
20139;DHT22;10230;51.502;10.800;2022-10-22T03:32:27;12.40;99.90
20139;DHT22;10230;51.502;10.800;2022-10-22T03:34:52;12.40;99.90
20139;DHT22;10230;51.502;10.800;2022-10-22T03:37:18;12.40;99.90
20139;DHT22;10230;51.502;10.800;2022-10-22T03:39:44;12.40;99.90
20139;DHT22;10230;51.502;10.800;2022-10-22T03:42:10;12.40;99.90
20139;DHT22;10230;51.502;10.800;2022-10-22T03:44:37;12.40;99.90
20139;DHT22;10230;51.502;10.800;2022-10-22T03:47:04;12.40;99.90
20139;DHT22;10230;51.502;10.800;2022-10-22T03:49:30;12.40;99.90
20139;DHT22;10230;51.502;10.800;2022-10-22T03:51:56;12.40;99.90
20139;DHT22;10230;51.502;10.800;2022-10-22T03:54:22;12.40;99.90
20139;DHT22;10230;51.502;10.800;2022-10-22T03:56:47;12.40;99.90
20139;DHT22;10230;51.502;10.800;2022-10-22T03:59:13;12.40;99.90
20139;DHT22;10230;51.502;10.800;2022-10-22T04:01:39;12.40;99.90
20139;DHT22;10230;51.502;10.800;2022-10-22T04:04:05;12.40;99.90
20139;DHT22;10230;51.502;10.800;2022-10-22T04:06:31;12.40;99.90
20139;DHT22;10230;51.502;10.800;2022-10-22T04:08:58;12.30;99.90
20139;DHT22;10230;51.502;10.800;2022-10-22T04:11:23;12.30;99.90
20139;DHT22;10230;51.502;10.800;2022-10-22T04:13:49;12.30;99.90
20139;DHT22;10230;51.502;10.800;2022-10-22T04:16:17;12.30;99.90
20139;DHT22;10230;51.502;10.800;2022-10-22T04:18:45;12.20;99.90
20139;DHT22;10230;51.502;10.800;2022-10-22T04:21:13;12.20;99.90
20139;DHT22;10230;51.502;10.800;2022-10-22T04:23:44;12.20;99.90
20139;DHT22;10230;51.502;10.800;2022-10-22T04:26:10;12.20;99.90
20139;DHT22;10230;51.502;10.800;2022-10-22T04:28:36;12.20;99.90
20139;DHT22;10230;51.502;10.800;2022-10-22T04:31:09;12.10;99.90
20139;DHT22;10230;51.502;10.800;2022-10-22T04:33:35;11.90;99.90
20139;DHT22;10230;51.502;10.800;2022-10-22T04:36:09;12.10;99.90
20139;DHT22;10230;51.502;10.800;2022-10-22T04:38:36;12.10;99.90
20139;DHT22;10230;51.502;10.800;2022-10-22T04:41:13;12.00;99.90
20139;DHT22;10230;51.502;10.800;2022-10-22T04:43:39;12.00;99.90
20139;DHT22;10230;51.502;10.800;2022-10-22T04:46:05;12.10;99.90
20139;DHT22;10230;51.502;10.800;2022-10-22T04:48:34;12.10;99.90
20139;DHT22;10230;51.502;10.800;2022-10-22T04:51:00;12.10;99.90
20139;DHT22;10230;51.502;10.800;2022-10-22T04:53:26;12.10;99.90
20139;DHT22;10230;51.502;10.800;2022-10-22T04:55:52;12.20;99.90
20139;DHT22;10230;51.502;10.800;2022-10-22T04:58:18;12.20;99.90
20139;DHT22;10230;51.502;10.800;2022-10-22T05:00:43;12.20;99.90
20139;DHT22;10230;51.502;10.800;2022-10-22T05:03:09;12.30;99.90
20139;DHT22;10230;51.502;10.800;2022-10-22T05:05:35;12.20;99.90
20139;DHT22;10230;51.502;10.800;2022-10-22T05:08:00;12.30;99.90
20139;DHT22;10230;51.502;10.800;2022-10-22T05:10:26;12.20;99.90
20139;DHT22;10230;51.502;10.800;2022-10-22T05:12:52;12.30;99.90
20139;DHT22;10230;51.502;10.800;2022-10-22T05:15:18;12.20;99.90
20139;DHT22;10230;51.502;10.800;2022-10-22T05:17:43;12.20;99.90
20139;DHT22;10230;51.502;10.800;2022-10-22T05:20:09;12.20;99.90
20139;DHT22;10230;51.502;10.800;2022-10-22T05:22:35;12.20;99.90
20139;DHT22;10230;51.502;10.800;2022-10-22T05:25:00;12.20;99.90
20139;DHT22;10230;51.502;10.800;2022-10-22T05:27:26;12.20;99.90
20139;DHT22;10230;51.502;10.800;2022-10-22T05:29:52;12.10;99.90
20139;DHT22;10230;51.502;10.800;2022-10-22T05:32:17;12.10;99.90
20139;DHT22;10230;51.502;10.800;2022-10-22T05:34:43;12.10;99.90
20139;DHT22;10230;51.502;10.800;2022-10-22T05:37:09;12.10;99.90
20139;DHT22;10230;51.502;10.800;2022-10-22T05:39:34;12.10;99.90
20139;DHT22;10230;51.502;10.800;2022-10-22T05:42:02;12.10;99.90
20139;DHT22;10230;51.502;10.800;2022-10-22T05:44:27;12.10;99.90
20139;DHT22;10230;51.502;10.800;2022-10-22T05:46:53;12.10;99.90
20139;DHT22;10230;51.502;10.800;2022-10-22T05:49:19;12.20;99.90
20139;DHT22;10230;51.502;10.800;2022-10-22T05:51:44;12.20;99.90
20139;DHT22;10230;51.502;10.800;2022-10-22T05:54:17;12.20;99.90
20139;DHT22;10230;51.502;10.800;2022-10-22T05:56:43;12.20;99.90
20139;DHT22;10230;51.502;10.800;2022-10-22T05:59:10;12.20;99.90
20139;DHT22;10230;51.502;10.800;2022-10-22T06:01:37;12.20;99.90
20139;DHT22;10230;51.502;10.800;2022-10-22T06:14:23;12.50;99.90
20139;DHT22;10230;51.502;10.800;2022-10-22T06:16:50;12.50;99.90
20139;DHT22;10230;51.502;10.800;2022-10-22T06:19:17;12.50;99.90
20139;DHT22;10230;51.502;10.800;2022-10-22T06:21:43;12.50;99.90
20139;DHT22;10230;51.502;10.800;2022-10-22T06:24:10;12.50;99.90
20139;DHT22;10230;51.502;10.800;2022-10-22T06:26:36;12.50;99.90
20139;DHT22;10230;51.502;10.800;2022-10-22T06:29:02;12.50;99.90
20139;DHT22;10230;51.502;10.800;2022-10-22T06:31:28;12.50;99.90
20139;DHT22;10230;51.502;10.800;2022-10-22T06:33:55;12.50;99.90
20139;DHT22;10230;51.502;10.800;2022-10-22T06:36:22;12.50;99.90
20139;DHT22;10230;51.502;10.800;2022-10-22T06:38:52;12.60;99.90
20139;DHT22;10230;51.502;10.800;2022-10-22T06:41:17;12.50;99.90
20139;DHT22;10230;51.502;10.800;2022-10-22T06:43:44;12.50;99.90
20139;DHT22;10230;51.502;10.800;2022-10-22T06:46:12;12.40;99.90
20139;DHT22;10230;51.502;10.800;2022-10-22T06:48:39;12.40;99.90
20139;DHT22;10230;51.502;10.800;2022-10-22T06:51:07;12.40;99.90
20139;DHT22;10230;51.502;10.800;2022-10-22T06:53:34;12.50;99.90
20139;DHT22;10230;51.502;10.800;2022-10-22T07:03:30;12.80;99.90
20139;DHT22;10230;51.502;10.800;2022-10-22T07:10:50;13.10;99.90
20139;DHT22;10230;51.502;10.800;2022-10-22T07:13:15;13.10;99.90
20139;DHT22;10230;51.502;10.800;2022-10-22T07:18:07;13.20;99.90
20139;DHT22;10230;51.502;10.800;2022-10-22T07:20:32;13.20;99.90
20139;DHT22;10230;51.502;10.800;2022-10-22T07:22:58;13.20;99.90
20139;DHT22;10230;51.502;10.800;2022-10-22T07:25:24;13.20;99.90
20139;DHT22;10230;51.502;10.800;2022-10-22T07:27:49;13.20;99.90
20139;DHT22;10230;51.502;10.800;2022-10-22T07:30:16;13.30;99.90
20139;DHT22;10230;51.502;10.800;2022-10-22T07:32:42;13.30;99.90
20139;DHT22;10230;51.502;10.800;2022-10-22T07:35:08;13.30;99.90
20139;DHT22;10230;51.502;10.800;2022-10-22T07:40:00;13.40;99.90
20139;DHT22;10230;51.502;10.800;2022-10-22T07:42:25;13.40;99.90
20139;DHT22;10230;51.502;10.800;2022-10-22T07:44:51;13.40;99.90
20139;DHT22;10230;51.502;10.800;2022-10-22T07:47:17;13.30;99.90
20139;DHT22;10230;51.502;10.800;2022-10-22T07:49:42;13.30;99.90
20139;DHT22;10230;51.502;10.800;2022-10-22T07:52:08;13.30;99.90
20139;DHT22;10230;51.502;10.800;2022-10-22T07:54:33;13.30;99.90
20139;DHT22;10230;51.502;10.800;2022-10-22T07:56:59;13.40;99.90
20139;DHT22;10230;51.502;10.800;2022-10-22T07:59:25;13.40;99.90
20139;DHT22;10230;51.502;10.800;2022-10-22T08:04:17;13.60;99.90
20139;DHT22;10230;51.502;10.800;2022-10-22T08:18:55;14.80;99.90
20139;DHT22;10230;51.502;10.800;2022-10-22T08:26:12;21.50;99.90
20139;DHT22;10230;51.502;10.800;2022-10-22T08:31:06;24.50;99.90
20139;DHT22;10230;51.502;10.800;2022-10-22T08:33:32;24.90;99.90
20139;DHT22;10230;51.502;10.800;2022-10-22T08:35:58;24.60;99.90
20139;DHT22;10230;51.502;10.800;2022-10-22T08:38:23;24.30;99.90
20139;DHT22;10230;51.502;10.800;2022-10-22T08:40:59;24.50;99.90
20139;DHT22;10230;51.502;10.800;2022-10-22T08:48:52;24.30;99.90
20139;DHT22;10230;51.502;10.800;2022-10-22T08:51:22;23.90;99.90
20139;DHT22;10230;51.502;10.800;2022-10-22T08:54:22;23.40;99.90
20139;DHT22;10230;51.502;10.800;2022-10-22T08:57:23;24.20;99.90
20139;DHT22;10230;51.502;10.800;2022-10-22T09:07:47;34.10;95.60
20139;DHT22;10230;51.502;10.800;2022-10-22T10:24:44;43.40;40.70
20139;DHT22;10230;51.502;10.800;2022-10-22T10:30:00;40.80;43.20
20139;DHT22;10230;51.502;10.800;2022-10-22T10:35:36;40.40;44.30
20139;DHT22;10230;51.502;10.800;2022-10-22T10:40:49;41.60;42.00
20139;DHT22;10230;51.502;10.800;2022-10-22T10:53:16;33.90;50.60
20139;DHT22;10230;51.502;10.800;2022-10-22T11:06:09;26.50;67.70
20139;DHT22;10230;51.502;10.800;2022-10-22T11:08:40;26.30;69.60
20139;DHT22;10230;51.502;10.800;2022-10-22T11:17:00;26.20;74.60
